logo
Rechercher aéroport 
image banner adimage banner adimage banner ad
image banner ad

20CA - Clayton

Situé à Blythe, United States

ICAO - 20CA, IATA -

Données fournies par Airmate  

Information générale

Coordonnées: N33°36'13" W114°38'40"
Élévation : 261 feet MSL.
Variation magnétique : 13° East
Voir autres Aéroports à California

Données opérationnelles

Special qualification required
Heure actuelle UTC:
Heure actuelle locale:
Météo à : KBLH - Blythe ( 7 km )
METAR: KBLH 011652Z AUTO 18013KT 10SM CLR 30/21 A2980 RMK AO2 SLP085 T03000211 TSNO
TAF: KBLH 011120Z 0112/0212 18009KT P6SM SKC FM011500 18010G18KT P6SM SCT100 FM020200 20007KT P6SM FEW100
Voir NOTAMs / SUP AIP / TFR affectant cet aéroport [VIEW]
Fréquences de communication: [VIEW]

Pistes:

Coordonnées de l'aéroport

Adresse: Blythe United States

Vue satellite de 20CA